createdAt,value
2018-07-27T11:31:30.876Z,3.50
2018-07-27T11:32:30.842Z,3.80
2018-07-27T11:33:30.878Z,4.70
2018-07-27T11:34:30.822Z,4.30
2018-07-27T11:35:30.809Z,3.70
2018-07-27T11:36:30.839Z,4.10
2018-07-27T11:37:30.867Z,3.80
2018-07-27T11:38:30.787Z,3.90
2018-07-27T11:39:30.810Z,3.80
2018-07-27T11:40:30.766Z,3.30
2018-07-27T11:41:30.830Z,3.60
2018-07-27T11:42:30.792Z,3.30
2018-07-27T11:43:30.736Z,3.10
2018-07-27T11:44:30.758Z,3.30
2018-07-27T11:45:30.775Z,3.20
2018-07-27T11:46:30.711Z,2.90
2018-07-27T11:47:30.711Z,2.90
2018-07-27T11:48:30.753Z,3.00
2018-07-27T11:49:30.712Z,3.40
2018-07-27T11:50:30.711Z,3.20
2018-07-27T11:51:30.726Z,2.80
2018-07-27T11:52:30.702Z,2.90
2018-07-27T11:53:30.650Z,3.00
2018-07-27T11:54:30.642Z,3.20
2018-07-27T11:55:30.662Z,3.10
2018-07-27T11:56:30.630Z,3.30
2018-07-27T11:57:30.690Z,2.90
2018-07-27T11:58:30.649Z,3.20
2018-07-27T11:59:30.649Z,3.10
2018-07-27T12:00:30.689Z,3.20
2018-07-27T12:01:30.602Z,2.90
2018-07-27T12:02:30.585Z,3.00
2018-07-27T12:03:30.627Z,3.00
2018-07-27T12:04:30.564Z,3.00
2018-07-27T12:05:30.558Z,3.00
2018-07-27T12:06:31.364Z,3.10
2018-07-27T12:07:30.544Z,2.80
2018-07-27T12:08:30.534Z,3.00
2018-07-27T12:09:30.589Z,2.70
2018-07-27T12:10:30.519Z,2.80
2018-07-27T12:11:30.518Z,2.70
2018-07-27T12:12:30.603Z,2.60
2018-07-27T12:13:30.503Z,2.80
2018-07-27T12:14:30.640Z,2.60
2018-07-27T12:15:30.484Z,3.10
2018-07-27T12:16:30.532Z,2.70
2018-07-27T12:17:30.624Z,2.90
2018-07-27T12:18:30.461Z,2.80
2018-07-27T12:19:30.454Z,2.80
2018-07-27T12:20:30.568Z,2.80
2018-07-27T12:21:30.551Z,2.50
2018-07-27T12:22:30.458Z,2.90
2018-07-27T12:23:30.449Z,2.70
2018-07-27T12:24:30.417Z,2.80
2018-07-27T12:25:30.413Z,3.00
2018-07-27T12:26:30.404Z,3.00
2018-07-27T12:27:30.427Z,2.80
2018-07-27T12:28:30.406Z,2.80
2018-07-27T12:29:30.384Z,2.90
2018-07-27T12:30:30.374Z,2.60
2018-07-27T12:31:30.370Z,2.70
2018-07-27T12:32:30.468Z,2.60
2018-07-27T12:33:30.354Z,2.90
2018-07-27T12:34:30.344Z,2.60
2018-07-27T12:35:30.366Z,3.00
2018-07-27T12:36:30.339Z,3.10
2018-07-27T12:37:30.329Z,2.80
2018-07-27T12:38:30.374Z,3.00
2018-07-27T12:39:30.305Z,3.20
2018-07-27T12:40:30.300Z,2.70
2018-07-27T12:41:30.301Z,2.90
2018-07-27T12:42:30.282Z,2.70
2018-07-27T12:43:30.326Z,2.60
2018-07-27T12:44:30.303Z,2.70
2018-07-27T12:45:30.257Z,2.90
2018-07-27T12:46:30.295Z,2.60
2018-07-27T12:47:30.240Z,2.50
2018-07-27T12:48:30.235Z,2.70
2018-07-27T12:49:30.278Z,2.70
2018-07-27T12:50:30.215Z,2.60
2018-07-27T12:51:30.205Z,2.70
2018-07-27T12:52:30.198Z,2.70
2018-07-27T12:53:30.189Z,2.60
2018-07-27T12:54:30.218Z,2.80
2018-07-27T12:55:30.172Z,2.60
2018-07-27T12:56:30.164Z,2.40
2018-07-27T12:57:30.168Z,2.40
2018-07-27T12:58:30.151Z,2.40
2018-07-27T12:59:30.230Z,2.40
2018-07-27T13:00:30.619Z,2.40
2018-07-27T13:01:30.117Z,2.40
2018-07-27T13:02:30.140Z,2.30
2018-07-27T13:03:30.098Z,2.50
2018-07-27T13:04:30.090Z,2.50
2018-07-27T13:05:30.192Z,2.40
2018-07-27T13:06:30.070Z,2.40
2018-07-27T13:07:30.061Z,2.60
2018-07-27T13:08:30.060Z,2.60
2018-07-27T13:09:30.056Z,2.60
2018-07-27T13:10:30.292Z,2.40
2018-07-27T13:11:30.020Z,2.50
2018-07-27T13:12:30.044Z,2.60
2018-07-27T13:13:30.013Z,2.40
2018-07-27T13:14:29.990Z,2.60
2018-07-27T13:15:29.980Z,2.60
2018-07-27T13:16:30.019Z,2.30
2018-07-27T13:17:29.965Z,2.40
2018-07-27T13:18:29.967Z,2.20
2018-07-27T13:19:29.968Z,2.60
2018-07-27T13:20:29.932Z,2.10
2018-07-27T13:21:29.922Z,2.30
2018-07-27T13:22:30.068Z,2.50
2018-07-27T13:23:29.905Z,2.40
2018-07-27T13:25:29.949Z,2.20
2018-07-27T13:26:29.914Z,2.60
2018-07-27T13:27:29.886Z,2.30
2018-07-27T13:28:29.853Z,2.40
2018-07-27T13:29:29.842Z,2.40
2018-07-27T13:30:29.868Z,2.30
2018-07-27T13:31:29.876Z,2.50
2018-07-27T13:32:29.836Z,2.30
2018-07-27T13:33:29.812Z,2.40
2018-07-27T13:34:29.798Z,2.50
2018-07-27T13:35:29.784Z,2.50
2018-07-27T13:36:29.790Z,2.30
2018-07-27T13:38:29.773Z,2.70
2018-07-27T13:39:29.874Z,2.40
2018-07-27T13:40:29.731Z,2.90
2018-07-27T13:41:29.735Z,2.70
2018-07-27T13:42:29.748Z,2.70
2018-07-27T13:43:29.703Z,2.40
2018-07-27T13:44:29.730Z,2.60
2018-07-27T13:45:29.684Z,2.50
2018-07-27T13:46:29.691Z,2.40
2018-07-27T13:47:29.691Z,2.80
2018-07-27T13:48:29.655Z,2.60
2018-07-27T13:49:29.673Z,2.60
2018-07-27T13:50:29.637Z,2.70
2018-07-27T13:51:29.625Z,2.60
2018-07-27T13:52:29.620Z,2.50
2018-07-27T13:53:29.749Z,2.40
2018-07-27T13:54:29.656Z,2.60
2018-07-27T13:55:29.612Z,2.60
2018-07-27T13:56:29.579Z,2.50
2018-07-27T13:57:29.609Z,2.30
2018-07-27T13:58:29.580Z,2.30
2018-07-27T13:59:29.552Z,2.70
2018-07-27T14:00:29.606Z,2.60
2018-07-27T14:01:29.540Z,2.80
2018-07-27T14:02:29.508Z,2.40
2018-07-27T14:03:29.506Z,2.80
2018-07-27T14:04:29.666Z,2.80
2018-07-27T14:05:29.487Z,2.40
2018-07-27T14:06:29.493Z,2.60
2018-07-27T14:07:29.507Z,2.40
2018-07-27T14:08:29.448Z,2.50
2018-07-27T14:09:29.494Z,2.60
2018-07-27T14:10:29.452Z,2.70
2018-07-27T14:11:29.457Z,2.40
2018-07-27T14:12:29.408Z,2.60
2018-07-27T14:13:29.444Z,2.70
2018-07-27T14:14:29.428Z,2.50
2018-07-27T14:15:29.377Z,2.50
2018-07-27T14:16:29.449Z,2.30
2018-07-27T14:17:29.409Z,2.40
2018-07-27T14:21:04.937Z,2.00
2018-07-27T14:22:04.910Z,2.30
2018-07-27T14:23:04.909Z,2.70
2018-07-27T14:24:04.885Z,2.60
2018-07-27T14:25:04.898Z,2.70
2018-07-27T14:26:04.895Z,2.80
2018-07-27T14:27:04.861Z,2.80
2018-07-27T14:28:04.849Z,2.40
2018-07-27T14:29:04.844Z,2.60
2018-07-27T14:30:04.855Z,2.80
2018-07-27T14:31:04.914Z,2.60
2018-07-27T14:32:04.809Z,2.30
2018-07-27T14:33:04.795Z,2.30
2018-07-27T14:34:04.788Z,2.40
2018-07-27T14:35:04.955Z,2.70
2018-07-27T14:36:04.790Z,3.00
2018-07-27T14:37:04.865Z,2.80
2018-07-27T14:38:04.744Z,2.70
2018-07-27T14:39:04.739Z,2.90
2018-07-27T14:40:04.731Z,3.10
2018-07-27T14:41:04.742Z,2.90
2018-07-27T14:42:04.734Z,2.80
2018-07-27T14:43:04.724Z,2.90
2018-07-27T14:44:04.699Z,3.10
2018-07-27T14:45:04.737Z,3.00
2018-07-27T14:46:04.722Z,2.80
2018-07-27T14:47:04.655Z,2.70
2018-07-27T14:48:04.659Z,3.10
2018-07-27T14:49:04.679Z,2.70
2018-07-27T14:50:04.628Z,3.00
2018-07-27T14:51:04.647Z,2.90
2018-07-27T14:52:04.621Z,3.20
2018-07-27T14:53:04.600Z,3.00
2018-07-27T14:54:04.610Z,3.00
2018-07-27T14:55:04.587Z,3.10
2018-07-27T14:56:04.562Z,3.10
2018-07-27T14:57:04.587Z,2.60
2018-07-27T14:58:04.546Z,3.00
2018-07-27T14:59:04.552Z,2.70
2018-07-27T15:00:04.521Z,2.60
2018-07-27T15:01:04.543Z,2.50
2018-07-27T15:02:04.540Z,2.50
2018-07-27T15:03:04.490Z,2.50
2018-07-27T15:04:04.480Z,2.60
2018-07-27T15:05:04.493Z,2.90
2018-07-27T15:06:04.464Z,2.80
2018-07-27T15:07:04.554Z,3.00
2018-07-27T15:08:04.440Z,2.70
2018-07-27T15:09:04.456Z,2.80
2018-07-27T15:10:04.426Z,3.00
2018-07-27T15:11:04.410Z,2.80
2018-07-27T15:12:04.405Z,2.60
2018-07-27T15:13:04.440Z,2.90
2018-07-27T15:14:04.382Z,2.90
2018-07-27T15:15:04.369Z,2.90
2018-07-27T15:16:04.360Z,2.70
2018-07-27T15:17:04.359Z,2.80
2018-07-27T15:18:04.377Z,2.40
2018-07-27T15:19:04.423Z,2.50
2018-07-27T15:20:04.342Z,2.20
2018-07-27T15:21:04.309Z,2.40
2018-07-27T15:22:04.322Z,3.00
2018-07-27T15:23:04.312Z,2.90
2018-07-27T15:24:04.306Z,2.90
2018-07-27T15:25:04.270Z,2.80
2018-07-27T15:26:04.272Z,3.20
2018-07-27T15:27:04.246Z,2.70
2018-07-27T15:28:04.249Z,2.80
2018-07-27T15:29:04.294Z,2.90
2018-07-27T15:30:04.215Z,2.80
2018-07-27T15:31:04.267Z,2.50
2018-07-27T15:32:04.250Z,2.80
2018-07-27T15:33:04.186Z,2.60
2018-07-27T15:34:04.209Z,3.00
2018-07-27T15:35:04.183Z,3.10
2018-07-27T15:36:04.158Z,2.70
2018-07-27T15:37:04.145Z,2.80
2018-07-27T15:38:04.146Z,2.80
2018-07-27T15:39:04.125Z,2.70
2018-07-27T15:40:04.282Z,2.90
2018-07-27T15:41:04.111Z,2.70
2018-07-27T15:42:04.130Z,2.90
2018-07-27T15:43:04.086Z,2.60
2018-07-27T15:44:04.138Z,2.40
2018-07-27T15:45:04.111Z,2.80
2018-07-27T15:46:04.082Z,2.80
2018-07-27T15:47:04.040Z,2.70
2018-07-27T15:48:04.031Z,2.90
2018-07-27T15:49:04.023Z,2.50
2018-07-27T15:50:04.220Z,2.70
2018-07-27T15:51:04.002Z,2.50
2018-07-27T15:52:03.993Z,2.50
2018-07-27T15:53:03.985Z,2.90
2018-07-27T15:54:03.977Z,2.30
2018-07-27T15:55:03.971Z,2.40
2018-07-27T15:56:04.024Z,2.50
2018-07-27T15:57:03.942Z,2.40
2018-07-27T15:58:03.933Z,2.70
2018-07-27T15:59:03.921Z,2.30
2018-07-27T16:00:03.917Z,2.50
2018-07-27T16:01:03.930Z,2.40
2018-07-27T16:02:04.032Z,2.80
2018-07-27T16:03:03.921Z,2.20
2018-07-27T16:04:03.882Z,2.10
2018-07-27T16:05:03.887Z,2.60
2018-07-27T16:06:03.875Z,2.70
2018-07-27T16:07:03.854Z,2.40
2018-07-27T16:08:03.833Z,2.50
2018-07-27T16:09:03.844Z,2.40
2018-07-27T16:10:03.815Z,2.60
2018-07-27T16:11:03.895Z,2.40
2018-07-27T16:12:03.789Z,2.20
2018-07-27T16:13:03.788Z,2.50
2018-07-27T16:14:03.855Z,2.60
2018-07-27T16:15:03.761Z,2.40
2018-07-27T16:16:03.759Z,2.60
2018-07-27T16:17:03.819Z,2.60
2018-07-27T16:18:03.746Z,2.40
2018-07-27T16:19:03.734Z,2.80
2018-07-27T16:20:03.707Z,2.50
2018-07-27T16:21:03.712Z,2.30
2018-07-27T16:22:03.773Z,2.40
2018-07-27T16:23:03.678Z,2.60
2018-07-27T16:24:03.986Z,2.30
2018-07-27T16:25:03.667Z,2.40
2018-07-27T16:26:03.745Z,2.50
2018-07-27T16:27:03.692Z,2.70
2018-07-27T16:28:03.696Z,2.50
2018-07-27T16:29:03.625Z,2.40
2018-07-27T16:30:03.612Z,2.70
2018-07-27T16:31:03.642Z,2.40
2018-07-27T16:32:03.627Z,2.60
2018-07-27T16:33:03.586Z,2.50
2018-07-27T16:34:03.574Z,2.50
2018-07-27T16:35:03.676Z,2.80
2018-07-27T16:36:03.568Z,2.50
2018-07-27T16:37:03.531Z,2.60
2018-07-27T16:38:03.766Z,2.40
2018-07-27T16:39:03.522Z,2.60
2018-07-27T16:40:03.555Z,2.30
2018-07-27T16:41:03.541Z,2.40
2018-07-27T16:42:03.527Z,2.40
2018-07-27T16:43:03.532Z,2.40
2018-07-27T16:44:03.459Z,2.40
2018-07-27T16:45:03.477Z,2.60
2018-07-27T16:46:03.480Z,2.40
2018-07-27T16:47:03.459Z,2.50
2018-07-27T16:48:03.432Z,2.70
2018-07-27T16:49:03.475Z,2.70
2018-07-27T16:50:03.401Z,2.70
2018-07-27T16:51:03.412Z,2.50
2018-07-27T16:52:03.404Z,2.70
2018-07-27T16:53:03.401Z,2.80
2018-07-27T16:54:03.445Z,2.70
2018-07-27T16:55:03.353Z,2.70
2018-07-27T16:56:03.340Z,2.80
2018-07-27T16:57:03.360Z,2.60
2018-07-27T16:58:03.322Z,2.80
2018-07-27T16:59:03.319Z,2.80
2018-07-27T17:00:03.363Z,2.80
2018-07-27T17:01:03.314Z,3.10
2018-07-27T17:02:03.281Z,2.70
2018-07-27T17:03:03.293Z,2.50
2018-07-27T17:04:03.260Z,2.50
2018-07-27T17:05:03.253Z,2.70
2018-07-27T17:06:03.342Z,2.80
2018-07-27T17:07:03.314Z,2.30
2018-07-27T17:08:03.251Z,2.60
2018-07-27T17:09:03.218Z,2.50
2018-07-27T17:10:03.232Z,2.30
2018-07-27T17:11:03.215Z,2.50
2018-07-27T17:12:03.188Z,2.70
2018-07-27T17:13:03.269Z,2.40
2018-07-27T17:14:03.169Z,2.50
2018-07-27T17:15:03.160Z,2.40
2018-07-27T17:16:03.139Z,2.50
2018-07-27T17:17:03.143Z,2.40
2018-07-27T17:18:03.153Z,2.40
2018-07-27T17:19:03.135Z,2.50
2018-07-27T17:20:03.180Z,2.50
2018-07-27T17:21:03.095Z,2.60
2018-07-27T17:22:03.093Z,2.60
2018-07-27T17:23:03.093Z,2.30
2018-07-27T17:24:03.136Z,2.40
2018-07-27T17:25:03.144Z,2.50
2018-07-27T17:26:03.041Z,2.50
2018-07-27T17:27:03.037Z,2.50
2018-07-27T17:28:03.041Z,2.30
2018-07-27T17:29:03.037Z,2.70
2018-07-27T17:30:03.053Z,2.60
2018-07-27T17:31:03.149Z,2.70
2018-07-27T17:32:02.976Z,2.80
2018-07-27T17:33:02.966Z,2.80
2018-07-27T17:34:02.982Z,3.00
2018-07-27T17:35:03.054Z,2.70
2018-07-27T17:36:02.941Z,2.90
2018-07-27T17:37:02.950Z,3.00
2018-07-27T17:38:02.917Z,2.80
2018-07-27T17:39:02.909Z,2.90
2018-07-27T17:40:02.952Z,2.90
2018-07-27T17:41:02.886Z,3.20
2018-07-27T17:42:02.890Z,2.90
2018-07-27T17:43:02.897Z,2.60
2018-07-27T17:44:02.922Z,2.70
2018-07-27T17:45:02.865Z,3.10
2018-07-27T17:46:02.867Z,2.80
2018-07-27T17:47:02.856Z,3.00
2018-07-27T17:48:02.868Z,2.60
2018-07-27T17:49:02.809Z,2.50
2018-07-27T17:50:02.797Z,3.20
2018-07-27T17:51:02.944Z,3.00
2018-07-27T17:52:02.775Z,3.20
2018-07-27T17:53:02.765Z,3.20
2018-07-27T17:54:02.759Z,3.30
2018-07-27T17:55:02.742Z,2.70
2018-07-27T17:56:02.760Z,2.70
2018-07-27T17:57:02.786Z,2.60
2018-07-27T17:58:02.711Z,2.80
2018-07-27T17:59:02.717Z,2.80
2018-07-27T18:00:02.712Z,2.50
2018-07-27T18:01:02.715Z,2.90
2018-07-27T18:02:02.699Z,2.90
2018-07-27T18:03:02.738Z,2.80
2018-07-27T18:04:02.678Z,2.60
2018-07-27T18:05:02.642Z,2.70
2018-07-27T18:06:02.630Z,2.70
2018-07-27T18:07:02.763Z,2.90
2018-07-27T18:08:02.662Z,2.70
2018-07-27T18:09:02.639Z,3.00
2018-07-27T18:10:02.591Z,2.80
2018-07-27T18:11:02.579Z,2.80
2018-07-27T18:12:02.599Z,3.00
2018-07-27T18:13:02.562Z,2.40
2018-07-27T18:14:02.553Z,3.00
2018-07-27T18:15:02.563Z,3.20
2018-07-27T18:16:02.530Z,3.00
2018-07-27T18:17:02.521Z,3.10
2018-07-27T18:18:02.536Z,3.10
2018-07-27T18:19:02.530Z,2.70
2018-07-27T18:20:02.503Z,3.00
2018-07-27T18:21:02.521Z,3.00
2018-07-27T18:22:02.466Z,2.70
2018-07-27T18:23:02.481Z,3.00
2018-07-27T18:24:02.447Z,2.90
2018-07-27T18:25:02.446Z,2.80
2018-07-27T18:26:02.427Z,3.00
2018-07-27T18:27:02.500Z,3.20
2018-07-27T18:28:02.433Z,3.20
2018-07-27T18:29:02.393Z,2.90
2018-07-27T18:30:02.420Z,3.40
2018-07-27T18:31:02.375Z,3.20
2018-07-27T18:32:02.363Z,3.40
2018-07-27T18:33:02.417Z,3.30
2018-07-27T18:34:02.426Z,3.30
2018-07-27T18:35:02.359Z,3.30
2018-07-27T18:36:02.322Z,3.40
2018-07-27T18:37:02.310Z,3.40
2018-07-27T18:38:02.358Z,3.30
2018-07-27T18:39:02.296Z,4.10
2018-07-27T18:40:02.335Z,3.60
2018-07-27T18:41:02.275Z,3.40
2018-07-27T18:42:02.261Z,3.60
2018-07-27T18:43:02.254Z,3.10
2018-07-27T18:44:02.266Z,3.60
2018-07-27T18:45:02.242Z,3.80
2018-07-27T18:46:02.257Z,3.30
2018-07-27T18:47:09.746Z,3.40
2018-07-27T18:48:02.199Z,3.60
2018-07-27T18:49:02.188Z,3.40
2018-07-27T18:50:02.297Z,3.40
2018-07-27T18:51:02.173Z,3.10
2018-07-27T18:52:02.160Z,3.70
2018-07-27T18:53:02.223Z,3.30
2018-07-27T18:54:02.192Z,3.40
2018-07-27T18:55:02.169Z,3.50
2018-07-27T18:56:02.114Z,3.30
2018-07-27T18:57:02.107Z,3.60
2018-07-27T18:58:02.135Z,3.30
2018-07-27T18:59:02.097Z,3.40
2018-07-27T19:00:02.114Z,3.30
2018-07-27T19:01:02.136Z,3.40
2018-07-27T19:02:02.054Z,3.40
2018-07-27T19:03:02.087Z,3.40
2018-07-27T19:04:02.031Z,3.50
2018-07-27T19:05:02.049Z,3.50
2018-07-27T19:06:02.037Z,3.60
2018-07-27T19:07:02.011Z,3.80
2018-07-27T19:08:01.994Z,3.80
2018-07-27T19:09:01.996Z,3.80
2018-07-27T19:10:02.013Z,3.70
2018-07-27T19:11:01.959Z,4.20
2018-07-27T19:12:01.975Z,3.90
2018-07-27T19:13:01.942Z,3.80
2018-07-27T19:14:02.010Z,3.80
2018-07-27T19:15:01.942Z,4.00
2018-07-27T19:16:02.069Z,4.00
2018-07-27T19:17:01.897Z,4.00
2018-07-27T19:18:01.896Z,4.10
2018-07-27T19:19:01.874Z,4.00
2018-07-27T19:20:01.908Z,3.60
2018-07-27T19:21:01.856Z,4.10
2018-07-27T19:22:01.851Z,4.00
2018-07-27T19:23:01.836Z,3.90
2018-07-27T19:24:01.928Z,3.90
2018-07-27T19:25:01.853Z,3.90
2018-07-27T19:26:01.820Z,4.10
2018-07-27T19:27:01.791Z,4.00
2018-07-27T19:28:01.785Z,3.90
2018-07-27T19:29:01.773Z,4.10
2018-07-27T19:30:01.829Z,4.30
2018-07-27T19:31:01.749Z,4.20
2018-07-27T19:32:01.740Z,3.80
2018-07-27T19:33:01.727Z,4.60
2018-07-27T19:34:01.717Z,4.00
2018-07-27T19:35:01.767Z,3.90
2018-07-27T19:36:01.764Z,4.00
2018-07-27T19:37:01.686Z,4.40
2018-07-27T19:38:01.679Z,4.40
2018-07-27T19:39:01.667Z,4.40
2018-07-27T19:40:01.680Z,4.40
2018-07-27T19:41:01.658Z,4.90
2018-07-27T19:42:01.724Z,4.50
2018-07-27T19:43:01.623Z,5.90
2018-07-27T19:44:01.708Z,4.80
2018-07-27T19:45:01.632Z,6.30
2018-07-27T19:46:01.592Z,6.30
2018-07-27T19:47:01.583Z,6.70
2018-07-27T19:48:01.616Z,6.90
2018-07-27T19:49:01.606Z,7.00
2018-07-27T19:50:01.552Z,6.40
2018-07-27T19:51:01.579Z,6.00
2018-07-27T19:52:01.530Z,5.90
2018-07-27T19:53:01.531Z,5.80
2018-07-27T19:54:01.553Z,5.30
2018-07-27T19:55:01.505Z,4.60
2018-07-27T19:56:01.512Z,5.40
2018-07-27T19:57:01.493Z,5.60
2018-07-27T19:58:01.470Z,4.90
2018-07-27T19:59:01.481Z,4.40
2018-07-27T20:00:01.450Z,4.50
2018-07-27T20:01:01.630Z,4.40
2018-07-27T20:02:01.528Z,4.20
2018-07-27T20:03:02.693Z,4.50
2018-07-27T20:04:01.405Z,4.50
2018-07-27T20:05:01.401Z,4.60
2018-07-27T20:06:01.511Z,4.50
2018-07-27T20:07:01.372Z,4.20
2018-07-27T20:08:01.386Z,4.30
2018-07-27T20:09:01.349Z,4.60
2018-07-27T20:10:01.339Z,4.50
2018-07-27T20:11:01.391Z,4.10
2018-07-27T20:12:01.344Z,4.70
2018-07-27T20:13:01.330Z,4.20
2018-07-27T20:14:01.296Z,4.60
2018-07-27T20:15:01.285Z,4.10
2018-07-27T20:16:01.325Z,4.30
2018-07-27T20:17:01.266Z,4.20
2018-07-27T20:18:01.253Z,4.40
2018-07-27T20:19:01.253Z,4.20
2018-07-27T20:20:01.241Z,4.00
2018-07-27T20:21:01.249Z,4.10
2018-07-27T20:22:01.241Z,4.40
2018-07-27T20:23:01.272Z,4.20
2018-07-27T20:24:01.190Z,4.30
2018-07-27T20:25:01.178Z,3.90
2018-07-27T20:26:01.193Z,4.10
2018-07-27T20:27:01.157Z,4.00
2018-07-27T20:28:01.151Z,4.20
2018-07-27T20:29:01.167Z,4.40
2018-07-27T20:30:01.126Z,4.10
2018-07-27T20:31:01.139Z,3.90
2018-07-27T20:32:01.106Z,4.10
2018-07-27T20:33:01.094Z,4.30
2018-07-27T20:34:01.104Z,4.00
2018-07-27T20:35:01.124Z,4.40
2018-07-27T20:36:01.087Z,4.10
2018-07-27T20:37:01.170Z,4.10
2018-07-27T20:38:01.042Z,4.20
2018-07-27T20:39:01.030Z,4.00
2018-07-27T20:40:01.019Z,3.80
2018-07-27T20:41:01.056Z,4.40
2018-07-27T20:42:00.997Z,4.30
2018-07-27T20:43:00.991Z,4.50
2018-07-27T20:44:01.037Z,4.50
2018-07-27T20:45:00.986Z,4.60
2018-07-27T20:46:00.987Z,4.10
2018-07-27T20:47:00.999Z,4.50
2018-07-27T20:48:00.934Z,4.40
2018-07-27T20:49:00.937Z,4.30
2018-07-27T20:50:00.914Z,4.30
2018-07-27T20:51:00.927Z,4.00
2018-07-27T20:52:00.897Z,4.40
2018-07-27T20:53:00.894Z,4.40
2018-07-27T20:54:00.871Z,4.10
2018-07-27T20:55:00.864Z,4.50
2018-07-27T20:56:00.877Z,4.60
2018-07-27T20:57:00.848Z,4.40
2018-07-27T20:58:00.880Z,4.30
2018-07-27T20:59:00.837Z,4.30
2018-07-27T21:00:00.836Z,4.60
2018-07-27T21:01:00.858Z,4.40
2018-07-27T21:02:00.814Z,4.50
2018-07-27T21:03:00.775Z,4.50
2018-07-27T21:04:00.813Z,4.40
2018-07-27T21:05:00.764Z,4.30
2018-07-27T21:06:00.798Z,4.40
2018-07-27T21:07:00.733Z,4.60
2018-07-27T21:08:00.736Z,4.60
2018-07-27T21:09:00.717Z,4.70
2018-07-27T21:10:00.718Z,4.60
2018-07-27T21:11:00.694Z,4.40
2018-07-27T21:12:00.741Z,4.30
2018-07-27T21:13:00.682Z,4.60
2018-07-27T21:14:00.660Z,4.20
2018-07-27T21:15:00.649Z,4.40
2018-07-27T21:16:00.649Z,4.80
2018-07-27T21:17:00.788Z,4.60
2018-07-27T21:18:00.647Z,4.50
2018-07-27T21:19:00.618Z,4.50
2018-07-27T21:20:00.598Z,4.90
2018-07-27T21:21:00.587Z,4.50
2018-07-27T21:22:00.645Z,4.70
2018-07-27T21:23:00.565Z,4.50
2018-07-27T21:24:00.559Z,4.60
2018-07-27T21:25:00.578Z,4.50
2018-07-27T21:26:00.533Z,4.30
2018-07-27T21:27:00.576Z,4.30
2018-07-27T21:28:00.511Z,4.60
2018-07-27T21:29:00.501Z,4.50
2018-07-27T21:30:00.491Z,4.50
2018-07-27T21:31:00.555Z,4.80
2018-07-27T21:32:00.827Z,4.80
2018-07-27T21:33:00.479Z,4.00
2018-07-27T21:34:00.448Z,4.30
2018-07-27T21:35:00.438Z,4.70
2018-07-27T21:36:00.434Z,4.60
2018-07-27T21:37:00.639Z,4.50
2018-07-27T21:38:00.417Z,4.80
2018-07-27T21:39:00.408Z,4.50
2018-07-27T21:40:00.393Z,4.60
2018-07-27T21:41:00.450Z,4.70
2018-07-27T21:42:00.405Z,4.70
2018-07-27T21:43:00.514Z,4.90
2018-07-27T21:44:00.342Z,4.90
2018-07-27T21:45:00.334Z,5.10
2018-07-27T21:46:00.423Z,4.90
2018-07-27T21:47:00.337Z,4.60
2018-07-27T21:48:00.298Z,5.30
2018-07-27T21:49:00.289Z,4.70
2018-07-27T21:50:00.276Z,4.70
2018-07-27T21:51:00.316Z,4.60
2018-07-27T21:52:00.337Z,4.90
2018-07-27T21:53:00.252Z,4.70
2018-07-27T21:54:00.255Z,5.00
2018-07-27T21:55:00.227Z,5.00
2018-07-27T21:56:00.268Z,4.90
2018-07-27T21:57:00.378Z,5.00
2018-07-27T21:58:00.249Z,4.90
2018-07-27T21:59:00.181Z,4.80
2018-07-27T22:00:00.217Z,4.80
2018-07-27T22:01:00.163Z,4.90
2018-07-27T22:02:00.179Z,5.00
2018-07-27T22:03:00.164Z,4.60
2018-07-27T22:04:00.162Z,5.10
2018-07-27T22:05:00.123Z,4.90
2018-07-27T22:06:00.107Z,5.10
2018-07-27T22:07:00.118Z,5.10
2018-07-27T22:08:00.132Z,5.00
2018-07-27T22:09:00.075Z,5.50
2018-07-27T22:10:00.067Z,5.00
2018-07-27T22:11:00.053Z,5.30
2018-07-27T22:12:00.116Z,5.30
2018-07-27T22:13:00.036Z,4.80
2018-07-27T22:14:00.146Z,5.20
2018-07-27T22:15:00.012Z,4.80
2018-07-27T22:16:00.113Z,5.00
2018-07-27T22:17:00.038Z,4.70
2018-07-27T22:17:59.979Z,5.00
2018-07-27T22:18:59.976Z,4.80
2018-07-27T22:19:59.956Z,5.00
2018-07-27T22:20:59.944Z,5.10
2018-07-27T22:21:59.959Z,4.80
2018-07-27T22:22:59.991Z,5.10
2018-07-27T22:23:59.913Z,5.20
2018-07-27T22:24:59.904Z,4.90
2018-07-27T22:25:59.900Z,5.00
2018-07-27T22:26:59.983Z,4.70
2018-07-27T22:27:59.871Z,5.10
2018-07-27T22:28:59.860Z,5.10
2018-07-27T22:29:59.935Z,4.90
2018-07-27T22:30:59.838Z,5.20
2018-07-27T22:31:59.942Z,5.10
2018-07-27T22:32:59.879Z,4.60
2018-07-27T22:33:59.805Z,4.90
2018-07-27T22:34:59.795Z,4.70
2018-07-27T22:35:59.783Z,4.80
2018-07-27T22:36:59.803Z,5.00
2018-07-27T22:37:59.886Z,4.90
2018-07-27T22:38:59.859Z,5.10
2018-07-27T22:39:59.744Z,5.00
2018-07-27T22:40:59.731Z,5.30
2018-07-27T22:41:59.771Z,4.80
2018-07-27T22:42:59.713Z,5.00
2018-07-27T22:43:59.703Z,5.00
2018-07-27T22:44:59.727Z,5.20
2018-07-27T22:45:59.691Z,4.90
2018-07-27T22:46:59.693Z,4.90
2018-07-27T22:47:59.658Z,5.10
2018-07-27T22:48:59.654Z,5.20
2018-07-27T22:49:59.635Z,5.30
2018-07-27T22:50:59.630Z,5.10
2018-07-27T22:51:59.681Z,5.10
2018-07-27T22:52:59.612Z,5.50
2018-07-27T22:53:59.604Z,5.30
2018-07-27T22:54:59.620Z,5.20
2018-07-27T22:55:59.603Z,5.40
2018-07-27T22:56:59.589Z,5.20
2018-07-27T22:57:59.573Z,5.00
2018-07-27T22:58:59.541Z,4.90
2018-07-27T22:59:59.530Z,4.80
2018-07-27T23:00:59.565Z,4.90
2018-07-27T23:01:59.550Z,5.00
2018-07-27T23:02:59.497Z,5.30
2018-07-27T23:03:59.491Z,5.80
2018-07-27T23:04:59.494Z,5.60
2018-07-27T23:05:59.498Z,5.60
2018-07-27T23:06:59.480Z,5.20
2018-07-27T23:07:59.450Z,5.80
2018-07-27T23:08:59.451Z,5.30
2018-07-27T23:09:59.422Z,5.20
2018-07-27T23:10:59.449Z,5.40
2018-07-27T23:11:59.489Z,5.80
2018-07-27T23:12:59.406Z,5.50
2018-07-27T23:13:59.381Z,5.20
2018-07-27T23:14:59.418Z,5.10
2018-07-27T23:15:59.360Z,5.40
2018-07-27T23:16:59.374Z,5.80
2018-07-27T23:17:59.346Z,5.20
2018-07-27T23:18:59.350Z,5.60
2018-07-27T23:19:59.318Z,5.60
2018-07-27T23:20:59.307Z,5.60
2018-07-27T23:21:59.319Z,5.20
2018-07-27T23:22:59.285Z,5.90
2018-07-27T23:23:59.274Z,5.20
2018-07-27T23:24:59.304Z,5.50
2018-07-27T23:25:59.257Z,5.50
2018-07-27T23:26:59.272Z,5.50
2018-07-27T23:27:59.287Z,5.80
2018-07-27T23:28:59.221Z,6.00
2018-07-27T23:29:59.210Z,5.60
2018-07-27T23:30:59.244Z,5.70
2018-07-27T23:31:59.258Z,5.40
2018-07-27T23:32:59.195Z,5.60
2018-07-27T23:33:59.171Z,5.60
2018-07-27T23:34:59.158Z,5.70
2018-07-27T23:35:59.148Z,5.80
2018-07-27T23:36:59.161Z,5.70
2018-07-27T23:37:59.158Z,5.30
2018-07-27T23:38:59.114Z,5.60
2018-07-27T23:39:59.106Z,5.20
2018-07-27T23:40:59.092Z,5.60
2018-07-27T23:41:59.106Z,5.50
2018-07-27T23:42:59.078Z,5.80
2018-07-27T23:43:59.077Z,5.60
2018-07-27T23:44:59.057Z,6.20
2018-07-27T23:45:59.048Z,6.00
2018-07-27T23:46:59.098Z,5.30
2018-07-27T23:47:59.066Z,5.90
2018-07-27T23:48:59.017Z,5.80
2018-07-27T23:49:59.029Z,5.70
2018-07-27T23:50:58.988Z,6.30
2018-07-27T23:51:59.041Z,6.00
2018-07-27T23:52:58.965Z,5.60
2018-07-27T23:53:58.979Z,5.50
2018-07-27T23:54:58.945Z,5.60
2018-07-27T23:55:58.939Z,5.90
2018-07-27T23:56:58.952Z,5.70
2018-07-27T23:57:58.911Z,5.30
2018-07-27T23:58:58.931Z,5.80
2018-07-27T23:59:58.927Z,5.80
